Aérodrome :
LOGIN :

S'inscrire | Disclaimer

   EN    FR    IT 

 










Légende :    VFR   VFR Marginal   IFR   IFR Intensif   IFR Très Intensif
Visi : 
Plafond : 
>= 8 km
>= 3000ft
5 à 8 km
1000 à 3000 ft
1500m à 5 km
500 à 1000 ft
800 à 1500m
200 à 500 ft
< 800m
< 200 ft
Symboles :   Orages  Brouillard  Fortes neiges  Fortes précipitations  Vent > 20 kt
SIGMETs :   Divers  Orages  Givrage  Turbulence  Onde Orograph.  Cendres Volcan.






- Altitude de l'aérodrome : 183 ft
- Code IATA : HAJ


EDDV - Hanover/Langenhagen Int.

DERNIER METAR :
  • 270320Z 17005KT 100V270 CAVOK 04/02 Q1011

METARs EXPIRÉS :
  • 270250Z 15006KT 110V190 CAVOK 04/02 Q1011
  • 270220Z 18007KT 150V210 CAVOK 04/02 Q1012
  • 270150Z 18007KT CAVOK 04/02 Q1012
  • 270120Z 19007KT 160V220 CAVOK 03/02 Q1012
  • 270050Z 19006KT 150V220 CAVOK 03/02 Q1012

TAF TAF EDDV
Valide du 27 à 00h jusqu'au 28 à 00h UTC


262300Z 2700/2724 18009KT 9999 BKN035



MET'MAP, la Météo Aéronautique d'un coup d'oeil ! - Copyright ORBIFLY Décembre 2007 - Disclaimer

ORBIFLY MET'MAP TEAM :

Programmation & Développement : Alexandra Zaïnal
Sur une idée originale de : Baudouin d'Aumeries
Assistance à la programmation : Marc-Olivier Méhu
Soutien technique & logistique : Manuel Goepfert

Contact : metmap@orbifly.com




SOURCES & CREDITS :

   NOAA